createdAt,value
2022-08-27T00:01:51.395Z,4.00
2022-08-27T00:04:19.550Z,3.05
2022-08-27T00:06:47.814Z,3.53
2022-08-27T00:09:16.256Z,4.10
2022-08-27T00:11:54.624Z,3.67
2022-08-27T00:14:24.134Z,3.85
2022-08-27T00:16:52.212Z,3.70
2022-08-27T00:19:20.611Z,3.42
2022-08-27T00:21:49.079Z,3.70
2022-08-27T00:24:17.165Z,3.83
2022-08-27T00:26:45.919Z,3.85
2022-08-27T00:29:14.138Z,3.60
2022-08-27T00:31:43.700Z,3.65
2022-08-27T00:34:13.096Z,3.38
2022-08-27T00:36:41.531Z,3.90
2022-08-27T00:39:09.649Z,4.43
2022-08-27T00:41:38.416Z,4.30
2022-08-27T00:44:07.425Z,4.35
2022-08-27T00:46:39.095Z,4.30
2022-08-27T00:49:12.393Z,4.30
2022-08-27T00:51:41.515Z,4.65
2022-08-27T00:54:10.533Z,4.90
2022-08-27T00:56:51.761Z,5.03
2022-08-27T00:59:23.175Z,4.70
2022-08-27T01:02:09.366Z,5.47
2022-08-27T01:04:41.793Z,4.78
2022-08-27T01:07:10.928Z,5.22
2022-08-27T01:09:40.382Z,6.07
2022-08-27T01:12:09.557Z,5.10
2022-08-27T01:14:38.433Z,5.18
2022-08-27T01:17:11.154Z,5.90
2022-08-27T01:19:45.612Z,5.00
2022-08-27T01:22:24.070Z,7.43
2022-08-27T01:24:55.550Z,7.43
2022-08-27T01:27:27.117Z,7.20
2022-08-27T01:29:55.649Z,6.10
2022-08-27T01:32:27.683Z,5.55
2022-08-27T01:34:56.416Z,5.22
2022-08-27T01:37:26.908Z,6.40
2022-08-27T01:39:59.018Z,7.78
2022-08-27T01:42:31.554Z,7.43
2022-08-27T01:45:05.866Z,7.22
2022-08-27T01:47:35.012Z,5.88
2022-08-27T01:50:05.085Z,6.45
2022-08-27T01:52:33.182Z,7.10
2022-08-27T01:55:02.846Z,9.57
2022-08-27T01:57:32.783Z,9.57
2022-08-27T02:00:01.042Z,7.70
2022-08-27T02:02:29.237Z,7.85
2022-08-27T02:04:57.389Z,7.22
2022-08-27T02:07:25.478Z,8.30
2022-08-27T02:09:53.548Z,8.35
2022-08-27T02:12:23.238Z,7.15
2022-08-27T02:14:52.279Z,10.52
2022-08-27T02:17:20.370Z,8.40
2022-08-27T02:19:48.821Z,7.35
2022-08-27T02:22:17.104Z,7.75
2022-08-27T02:24:45.149Z,8.85
2022-08-27T02:27:13.769Z,9.23
2022-08-27T02:29:43.194Z,9.82
2022-08-27T02:32:17.687Z,9.65
2022-08-27T02:34:59.788Z,11.18
2022-08-27T02:37:27.989Z,9.10
2022-08-27T02:39:57.062Z,8.43
2022-08-27T02:42:25.886Z,8.13
2022-08-27T02:44:55.467Z,8.70
2022-08-27T02:47:23.511Z,7.82
2022-08-27T02:49:51.892Z,8.15
2022-08-27T02:52:24.813Z,9.25
2022-08-27T02:54:53.595Z,7.32
2022-08-27T02:57:22.472Z,8.02
2022-08-27T02:59:50.914Z,10.38
2022-08-27T03:02:21.085Z,7.95
2022-08-27T03:04:49.713Z,11.35
2022-08-27T03:07:19.567Z,9.00
2022-08-27T03:09:47.928Z,7.63
2022-08-27T03:12:16.918Z,10.98
2022-08-27T03:14:46.021Z,9.38
2022-08-27T03:17:32.123Z,10.13
2022-08-27T03:20:02.124Z,8.32
2022-08-27T03:22:30.269Z,10.88
2022-08-27T03:24:58.361Z,8.15
2022-08-27T03:27:26.478Z,7.60
2022-08-27T03:29:54.565Z,11.18
2022-08-27T03:32:22.690Z,7.28
2022-08-27T03:34:50.827Z,8.32
2022-08-27T03:37:20.281Z,8.45
2022-08-27T03:39:48.442Z,10.95
2022-08-27T03:42:16.514Z,11.23
2022-08-27T03:44:45.024Z,9.63
2022-08-27T03:47:13.311Z,8.15
2022-08-27T03:49:41.474Z,8.35
2022-08-27T03:52:10.062Z,8.75
2022-08-27T03:54:40.301Z,8.65
2022-08-27T03:57:08.937Z,7.90
2022-08-27T03:59:37.059Z,7.35
2022-08-27T04:02:06.089Z,10.35
2022-08-27T04:04:34.326Z,7.85
2022-08-27T04:07:02.941Z,7.40
2022-08-27T04:09:31.041Z,7.60
2022-08-27T04:12:00.440Z,9.07
2022-08-27T04:14:28.541Z,6.97
2022-08-27T04:16:57.739Z,6.53
2022-08-27T04:19:28.570Z,6.35
2022-08-27T04:22:01.557Z,8.15
2022-08-27T04:24:31.302Z,8.60
2022-08-27T04:27:01.398Z,5.57
2022-08-27T04:29:29.934Z,6.43
2022-08-27T04:31:58.249Z,6.95
2022-08-27T04:34:27.057Z,7.90
2022-08-27T04:36:57.774Z,6.80
2022-08-27T04:39:27.090Z,8.60
2022-08-27T04:41:56.991Z,5.43
2022-08-27T04:44:28.233Z,5.65
2022-08-27T04:46:58.261Z,7.45
2022-08-27T04:49:27.342Z,6.28
2022-08-27T04:51:56.376Z,7.63
2022-08-27T04:54:28.519Z,9.25
2022-08-27T04:57:02.798Z,6.30
2022-08-27T04:59:35.211Z,7.85
2022-08-27T05:02:05.679Z,7.18
2022-08-27T05:04:37.926Z,8.77
2022-08-27T05:07:06.830Z,7.57
2022-08-27T05:09:35.437Z,9.20
2022-08-27T05:12:04.475Z,7.82
2022-08-27T05:14:33.869Z,6.97
2022-08-27T05:17:03.454Z,7.22
2022-08-27T05:19:32.185Z,8.45
2022-08-27T05:22:00.312Z,9.07
2022-08-27T05:24:28.757Z,7.53
2022-08-27T05:26:56.830Z,9.27
2022-08-27T05:29:24.921Z,7.57
2022-08-27T05:31:54.571Z,6.70
2022-08-27T05:34:25.832Z,6.85
2022-08-27T05:36:54.678Z,9.20
2022-08-27T05:39:22.733Z,7.07
2022-08-27T05:41:52.979Z,6.22
2022-08-27T05:47:11.108Z,6.82
2022-08-27T05:49:39.269Z,7.60
2022-08-27T05:52:11.085Z,6.25
2022-08-27T05:54:39.760Z,7.43
2022-08-27T05:57:08.069Z,9.10
2022-08-27T05:59:54.437Z,7.57
2022-08-27T06:02:24.126Z,6.68
2022-08-27T06:04:52.717Z,5.97
2022-08-27T06:07:21.372Z,6.35
2022-08-27T06:09:49.425Z,6.60
2022-08-27T06:12:17.454Z,6.82
2022-08-27T06:14:45.617Z,9.15
2022-08-27T06:17:13.812Z,6.22
2022-08-27T06:19:43.449Z,7.32
2022-08-27T06:22:11.526Z,7.50
2022-08-27T06:24:40.476Z,8.10
2022-08-27T06:27:10.537Z,7.25
2022-08-27T06:29:38.661Z,8.35
2022-08-27T06:32:07.041Z,7.35
2022-08-27T06:34:35.159Z,6.95
2022-08-27T06:37:04.946Z,7.65
2022-08-27T06:39:33.283Z,6.88
2022-08-27T06:42:01.711Z,7.68
2022-08-27T06:44:30.154Z,8.35
2022-08-27T06:46:58.181Z,5.90
2022-08-27T06:49:26.325Z,7.40
2022-08-27T06:51:54.585Z,6.00
2022-08-27T06:54:24.069Z,6.45
2022-08-27T06:56:52.067Z,6.80
2022-08-27T06:59:20.858Z,6.43
2022-08-27T07:01:51.638Z,6.35
2022-08-27T07:04:22.492Z,6.90
2022-08-27T07:06:55.997Z,5.88
2022-08-27T07:09:25.562Z,5.78
2022-08-27T07:11:53.630Z,6.82
2022-08-27T07:14:22.050Z,6.20
2022-08-27T07:16:51.622Z,6.05
2022-08-27T07:19:21.021Z,5.65
2022-08-27T07:21:50.703Z,5.63
2022-08-27T07:24:19.753Z,5.50
2022-08-27T07:26:49.203Z,5.30
2022-08-27T07:29:17.546Z,5.68
2022-08-27T07:31:46.473Z,5.28
2022-08-27T07:34:14.609Z,7.63
2022-08-27T07:36:42.749Z,6.28
2022-08-27T07:39:10.909Z,4.93
2022-08-27T07:41:59.457Z,5.63
2022-08-27T07:44:34.239Z,7.32
2022-08-27T07:47:03.137Z,5.95
2022-08-27T07:49:32.277Z,5.63
2022-08-27T07:52:00.370Z,5.30
2022-08-27T07:54:28.806Z,5.97
2022-08-27T07:56:56.910Z,6.88
2022-08-27T07:59:26.357Z,5.68
2022-08-27T08:01:56.907Z,5.65
2022-08-27T08:04:25.170Z,4.85
2022-08-27T08:06:53.329Z,5.43
2022-08-27T08:09:23.834Z,6.22
2022-08-27T08:11:53.078Z,5.95
2022-08-27T08:14:21.713Z,5.50
2022-08-27T08:16:49.839Z,6.22
2022-08-27T08:19:19.465Z,6.55
2022-08-27T08:21:47.507Z,6.40
2022-08-27T08:24:15.690Z,6.25
2022-08-27T08:26:44.367Z,6.38
2022-08-27T08:29:13.288Z,6.15
2022-08-27T08:31:49.974Z,6.25
2022-08-27T08:34:20.687Z,5.35
2022-08-27T08:36:54.605Z,5.03
2022-08-27T08:39:23.778Z,8.07
2022-08-27T08:41:54.932Z,6.65
2022-08-27T08:44:32.078Z,6.00
2022-08-27T08:47:05.671Z,7.20
2022-08-27T08:49:50.690Z,6.68
2022-08-27T08:52:31.135Z,6.22
2022-08-27T08:55:08.929Z,6.13
2022-08-27T08:57:42.133Z,6.03
2022-08-27T09:00:14.199Z,7.00
2022-08-27T09:02:50.490Z,5.47
2022-08-27T09:05:20.203Z,6.00
2022-08-27T09:08:28.544Z,5.57
2022-08-27T09:10:59.740Z,6.05
2022-08-27T09:13:33.942Z,6.47
2022-08-27T09:16:04.487Z,5.97
2022-08-27T09:18:36.083Z,5.95
2022-08-27T09:21:16.978Z,6.70
2022-08-27T09:23:54.318Z,6.43
2022-08-27T09:26:24.537Z,7.13
2022-08-27T09:29:15.902Z,6.13
2022-08-27T09:31:47.245Z,6.38
2022-08-27T09:34:16.547Z,5.82
2022-08-27T09:37:00.079Z,5.90
2022-08-27T09:39:33.762Z,5.35
2022-08-27T09:42:04.594Z,5.60
2022-08-27T09:44:33.712Z,6.97
2022-08-27T09:47:04.381Z,5.97
2022-08-27T09:49:34.735Z,5.75
2022-08-27T09:52:04.689Z,4.88
2022-08-27T09:54:41.122Z,5.45
2022-08-27T09:57:10.974Z,7.25
2022-08-27T09:59:44.641Z,5.95
2022-08-27T10:02:18.212Z,6.07
2022-08-27T10:04:50.313Z,5.50
2022-08-27T10:07:31.382Z,5.90
2022-08-27T10:10:04.764Z,5.00
2022-08-27T10:12:40.454Z,5.15
2022-08-27T10:15:12.377Z,5.50
2022-08-27T10:17:51.133Z,5.93
2022-08-27T10:20:30.543Z,5.53
2022-08-27T10:23:10.243Z,6.40
2022-08-27T10:25:47.719Z,6.00
2022-08-27T10:28:27.197Z,5.43
2022-08-27T10:31:08.431Z,6.93
2022-08-27T10:33:41.647Z,5.53
2022-08-27T10:36:16.713Z,5.72
2022-08-27T10:38:51.598Z,5.78
2022-08-27T10:41:25.197Z,5.72
2022-08-27T10:44:19.874Z,20.90
2022-08-27T10:47:27.226Z,16.98
2022-08-27T10:50:04.395Z,44.25
2022-08-27T10:52:38.966Z,35.15
2022-08-27T10:55:15.551Z,31.38
2022-08-27T10:58:16.790Z,18.88
2022-08-27T11:00:55.106Z,21.33
2022-08-27T11:03:33.516Z,9.63
2022-08-27T11:06:05.127Z,14.35
2022-08-27T11:08:40.643Z,10.18
2022-08-27T11:11:56.956Z,9.45
2022-08-27T11:14:07.157Z,8.32
2022-08-27T11:16:45.275Z,8.93
2022-08-27T11:19:19.045Z,8.55
2022-08-27T11:22:01.381Z,13.10
2022-08-27T11:24:37.094Z,9.15
2022-08-27T11:27:09.057Z,7.60
2022-08-27T11:29:59.905Z,7.82
2022-08-27T11:32:36.310Z,7.55
2022-08-27T11:35:10.677Z,7.38
2022-08-27T11:37:58.014Z,7.47
2022-08-27T11:40:49.465Z,6.47
2022-08-27T11:43:21.626Z,7.95
2022-08-27T11:45:57.366Z,11.98
2022-08-27T11:48:28.312Z,9.77
2022-08-27T11:51:00.150Z,7.40
2022-08-27T11:53:31.194Z,9.68
2022-08-27T11:55:59.798Z,21.70
2022-08-27T11:58:33.943Z,8.15
2022-08-27T12:01:27.087Z,22.52
2022-08-27T12:04:03.527Z,69.57
2022-08-27T12:06:43.161Z,46.13
2022-08-27T12:09:16.897Z,48.00
2022-08-27T12:11:56.875Z,118.35
2022-08-27T12:14:44.169Z,56.63
2022-08-27T12:17:24.585Z,36.15
2022-08-27T12:20:04.910Z,68.15
2022-08-27T12:23:08.458Z,43.75
2022-08-27T12:25:36.908Z,38.75
2022-08-27T12:28:07.200Z,15.50
2022-08-27T12:30:39.247Z,23.40
2022-08-27T12:33:14.644Z,13.52
2022-08-27T12:35:47.918Z,54.55
2022-08-27T12:38:19.322Z,40.92
2022-08-27T12:40:50.687Z,66.55
2022-08-27T12:43:21.678Z,43.17
2022-08-27T12:45:54.214Z,31.52
2022-08-27T12:48:29.211Z,20.10
2022-08-27T12:51:00.803Z,22.60
2022-08-27T12:53:43.913Z,8.38
2022-08-27T12:56:28.590Z,7.10
2022-08-27T12:59:06.070Z,5.82
2022-08-27T13:01:53.976Z,5.60
2022-08-27T13:04:25.621Z,8.20
2022-08-27T13:06:53.776Z,4.78
2022-08-27T13:09:29.154Z,5.80
2022-08-27T13:11:59.965Z,4.80
2022-08-27T13:14:33.382Z,4.80
2022-08-27T13:17:08.265Z,4.60
2022-08-27T13:19:44.122Z,4.72
2022-08-27T13:22:12.542Z,4.88
2022-08-27T13:24:49.031Z,4.72
2022-08-27T13:27:17.529Z,7.40
2022-08-27T13:29:45.793Z,5.03
2022-08-27T13:32:16.409Z,4.95
2022-08-27T13:34:45.458Z,4.15
2022-08-27T13:37:24.565Z,5.97
2022-08-27T13:39:54.513Z,5.28
2022-08-27T13:42:25.221Z,5.15
2022-08-27T13:44:56.539Z,5.40
2022-08-27T13:47:27.957Z,5.03
2022-08-27T13:50:03.926Z,4.10
2022-08-27T13:52:35.185Z,4.88
2022-08-27T13:55:08.321Z,4.20
2022-08-27T13:57:43.361Z,4.88
2022-08-27T14:00:15.289Z,4.07
2022-08-27T14:02:55.843Z,6.07
2022-08-27T14:05:34.039Z,4.53
2022-08-27T14:08:12.605Z,4.00
2022-08-27T14:10:42.934Z,3.67
2022-08-27T14:13:15.007Z,4.82
2022-08-27T14:15:45.565Z,4.07
2022-08-27T14:18:42.154Z,3.30
2022-08-27T14:21:14.693Z,3.08
2022-08-27T14:23:42.780Z,3.33
2022-08-27T14:26:10.888Z,3.42
2022-08-27T14:28:40.344Z,3.03
2022-08-27T14:31:08.510Z,3.10
2022-08-27T14:33:37.971Z,2.97
2022-08-27T14:36:07.401Z,3.22
2022-08-27T14:38:37.672Z,2.80
2022-08-27T14:41:08.978Z,2.88
2022-08-27T14:43:37.915Z,5.15
2022-08-27T14:46:08.881Z,3.47
2022-08-27T14:48:43.405Z,2.70
2022-08-27T14:51:25.604Z,3.05
2022-08-27T14:53:54.241Z,2.80
2022-08-27T14:56:23.597Z,2.90
2022-08-27T14:58:54.046Z,3.03
2022-08-27T15:01:24.526Z,2.63
2022-08-27T15:03:55.786Z,3.67
2022-08-27T15:06:25.240Z,2.33
2022-08-27T15:08:54.871Z,2.20
2022-08-27T15:11:25.737Z,2.92
2022-08-27T15:13:54.523Z,3.00
2022-08-27T15:16:30.695Z,5.00
2022-08-27T15:19:01.516Z,4.47
2022-08-27T15:21:31.782Z,4.88
2022-08-27T15:24:02.982Z,13.18
2022-08-27T15:26:31.878Z,6.35
2022-08-27T15:29:05.636Z,5.78
2022-08-27T15:31:34.752Z,4.90
2022-08-27T15:34:04.524Z,4.80
2022-08-27T15:36:32.755Z,4.43
2022-08-27T15:39:00.853Z,4.40
2022-08-27T15:41:29.829Z,5.70
2022-08-27T15:43:58.516Z,4.82
2022-08-27T15:46:27.058Z,5.25
2022-08-27T15:48:55.561Z,4.10
2022-08-27T15:51:29.663Z,4.78
2022-08-27T15:53:58.232Z,3.90
2022-08-27T15:56:30.347Z,3.65
2022-08-27T15:59:00.671Z,3.47
2022-08-27T16:01:31.727Z,2.60
2022-08-27T16:04:01.294Z,3.15
2022-08-27T16:06:31.039Z,3.22
2022-08-27T16:08:59.398Z,2.90
2022-08-27T16:11:27.697Z,2.83
2022-08-27T16:13:56.230Z,2.65
2022-08-27T16:16:26.857Z,2.80
2022-08-27T16:18:55.275Z,2.28
2022-08-27T16:21:23.647Z,2.90
2022-08-27T16:23:53.080Z,2.72
2022-08-27T16:26:21.177Z,3.03
2022-08-27T16:28:49.243Z,2.65
2022-08-27T16:31:17.440Z,2.58
2022-08-27T16:33:46.289Z,3.17
2022-08-27T16:36:14.328Z,2.55
2022-08-27T16:38:42.422Z,2.15
2022-08-27T16:41:12.505Z,2.90
2022-08-27T16:43:41.313Z,3.00
2022-08-27T16:46:09.506Z,2.75
2022-08-27T16:48:58.207Z,2.65
2022-08-27T16:51:34.521Z,2.30
2022-08-27T16:54:04.192Z,2.50
2022-08-27T16:56:37.690Z,2.63
2022-08-27T16:59:06.140Z,2.85
2022-08-27T17:01:34.924Z,2.92
2022-08-27T17:04:17.278Z,3.05
2022-08-27T17:06:51.618Z,3.20
2022-08-27T17:09:20.040Z,2.90
2022-08-27T17:11:54.938Z,3.50
2022-08-27T17:14:23.070Z,2.80
2022-08-27T17:16:54.099Z,2.63
2022-08-27T17:19:25.364Z,2.58
2022-08-27T17:21:54.987Z,2.63
2022-08-27T17:24:23.510Z,2.47
2022-08-27T17:26:52.995Z,2.80
2022-08-27T17:29:21.219Z,2.33
2022-08-27T17:31:49.279Z,2.88
2022-08-27T17:34:19.626Z,2.05
2022-08-27T17:36:48.116Z,2.38
2022-08-27T17:39:16.677Z,2.45
2022-08-27T17:41:47.696Z,2.85
2022-08-27T17:44:24.081Z,2.55
2022-08-27T17:46:53.528Z,2.10
2022-08-27T17:49:21.805Z,3.30
2022-08-27T17:51:51.598Z,2.58
2022-08-27T17:54:27.454Z,2.50
2022-08-27T17:56:55.972Z,2.33
2022-08-27T17:59:25.841Z,2.50
2022-08-27T18:01:54.913Z,2.67
2022-08-27T18:04:23.362Z,2.45
2022-08-27T18:06:51.589Z,1.92
2022-08-27T18:09:20.033Z,2.17
2022-08-27T18:11:48.338Z,2.38
2022-08-27T18:14:18.563Z,2.03
2022-08-27T18:16:48.639Z,1.80
2022-08-27T18:19:17.057Z,2.20
2022-08-27T18:21:46.437Z,2.15
2022-08-27T18:24:15.630Z,2.35
2022-08-27T18:26:44.659Z,2.78
2022-08-27T18:29:14.825Z,2.30
2022-08-27T18:31:43.658Z,1.98
2022-08-27T18:34:17.541Z,2.13
2022-08-27T18:36:48.259Z,2.15
2022-08-27T18:39:16.343Z,2.22
2022-08-27T18:41:45.192Z,1.83
2022-08-27T18:44:17.560Z,1.98
2022-08-27T18:46:46.301Z,1.88
2022-08-27T18:49:15.814Z,2.25
2022-08-27T18:51:49.244Z,2.40
2022-08-27T18:54:18.804Z,2.40
2022-08-27T18:56:46.885Z,1.95
2022-08-27T18:59:16.249Z,2.10
2022-08-27T19:01:44.944Z,2.15
2022-08-27T19:04:16.553Z,1.98
2022-08-27T19:06:44.598Z,2.60
2022-08-27T19:09:14.419Z,2.05
2022-08-27T19:11:42.636Z,2.50
2022-08-27T19:14:10.745Z,2.05
2022-08-27T19:16:43.499Z,2.30
2022-08-27T19:19:13.063Z,2.42
2022-08-27T19:21:42.885Z,2.05
2022-08-27T19:24:11.806Z,2.10
2022-08-27T19:26:40.754Z,2.33
2022-08-27T19:29:09.565Z,2.45
2022-08-27T19:31:39.113Z,2.20
2022-08-27T19:34:09.217Z,2.15
2022-08-27T19:36:42.918Z,1.98
2022-08-27T19:39:14.630Z,2.17
2022-08-27T19:41:42.736Z,2.20
2022-08-27T19:44:10.893Z,2.40
2022-08-27T19:46:39.510Z,2.45
2022-08-27T19:49:07.702Z,2.38
2022-08-27T19:51:35.801Z,2.00
2022-08-27T19:54:04.715Z,2.20
2022-08-27T19:56:34.531Z,1.88
2022-08-27T19:59:14.561Z,1.90
2022-08-27T20:01:49.800Z,2.03
2022-08-27T20:04:17.981Z,2.17
2022-08-27T20:06:46.109Z,1.90
2022-08-27T20:09:21.390Z,1.90
2022-08-27T20:11:50.778Z,1.60
2022-08-27T20:14:19.974Z,1.50
2022-08-27T20:16:48.551Z,1.77
2022-08-27T20:19:17.377Z,2.20
2022-08-27T20:21:45.675Z,1.58
2022-08-27T20:24:14.035Z,1.40
2022-08-27T20:26:42.581Z,1.33
2022-08-27T20:29:15.030Z,1.60
2022-08-27T20:32:00.448Z,2.10
2022-08-27T20:34:29.790Z,1.10
2022-08-27T20:36:58.862Z,1.20
2022-08-27T20:39:27.002Z,1.30
2022-08-27T20:41:55.096Z,1.60
2022-08-27T20:44:24.965Z,1.42
2022-08-27T20:46:56.077Z,1.40
2022-08-27T20:49:24.151Z,1.60
2022-08-27T20:52:02.744Z,1.30
2022-08-27T20:54:33.886Z,1.38
2022-08-27T20:57:02.659Z,1.20
2022-08-27T20:59:50.019Z,1.25
2022-08-27T21:02:22.236Z,1.40
2022-08-27T21:04:50.673Z,1.20
2022-08-27T21:07:20.167Z,1.23
2022-08-27T21:09:56.347Z,1.30
2022-08-27T21:12:25.989Z,1.25
2022-08-27T21:14:58.087Z,1.00
2022-08-27T21:17:28.994Z,1.00
2022-08-27T21:19:57.318Z,1.25
2022-08-27T21:22:26.256Z,1.17
2022-08-27T21:24:54.512Z,1.08
2022-08-27T21:27:23.219Z,1.25
2022-08-27T21:29:51.493Z,1.15
2022-08-27T21:32:21.043Z,1.40
2022-08-27T21:34:49.234Z,1.40
2022-08-27T21:37:18.142Z,1.23
2022-08-27T21:39:46.690Z,1.13
2022-08-27T21:42:16.243Z,2.70
2022-08-27T21:44:44.919Z,0.98
2022-08-27T21:47:13.277Z,1.13
2022-08-27T21:49:42.986Z,1.30
2022-08-27T21:52:11.533Z,1.25
2022-08-27T21:54:41.237Z,1.50
2022-08-27T21:57:10.710Z,1.35
2022-08-27T21:59:44.897Z,1.40
2022-08-27T22:02:37.991Z,1.13
2022-08-27T22:05:03.849Z,1.52
2022-08-27T22:07:31.966Z,1.50
2022-08-27T22:10:00.165Z,1.60
2022-08-27T22:12:28.232Z,1.20
2022-08-27T22:14:56.350Z,1.83
2022-08-27T22:17:24.825Z,1.42
2022-08-27T22:19:53.013Z,1.55
2022-08-27T22:22:22.604Z,1.88
2022-08-27T22:24:50.855Z,1.67
2022-08-27T22:27:19.743Z,1.90
2022-08-27T22:29:47.791Z,1.35
2022-08-27T22:32:15.899Z,1.70
2022-08-27T22:34:43.990Z,1.48
2022-08-27T22:37:12.065Z,2.05
2022-08-27T22:39:41.464Z,1.63
2022-08-27T22:42:09.694Z,1.70
2022-08-27T22:44:41.326Z,2.00
2022-08-27T22:47:10.374Z,1.52
2022-08-27T22:49:38.554Z,1.63
2022-08-27T22:52:06.797Z,1.80
2022-08-27T22:54:35.285Z,1.55
2022-08-27T22:57:04.835Z,1.40
2022-08-27T22:59:32.885Z,1.88
2022-08-27T23:02:04.702Z,1.90
2022-08-27T23:04:53.692Z,1.67
2022-08-27T23:07:20.949Z,1.30
2022-08-27T23:09:48.960Z,1.80
2022-08-27T23:12:22.346Z,1.60
2022-08-27T23:14:50.727Z,1.75
2022-08-27T23:17:19.298Z,1.70
2022-08-27T23:19:48.019Z,1.65
2022-08-27T23:22:16.285Z,1.58
2022-08-27T23:24:58.401Z,1.60
2022-08-27T23:27:30.554Z,1.85
2022-08-27T23:29:59.729Z,1.45
2022-08-27T23:32:28.476Z,1.58
2022-08-27T23:34:57.221Z,1.55
2022-08-27T23:37:25.320Z,1.77
2022-08-27T23:39:53.504Z,1.75
2022-08-27T23:42:21.597Z,1.95
2022-08-27T23:44:51.033Z,1.60
2022-08-27T23:47:19.201Z,1.50
2022-08-27T23:49:47.246Z,1.90
2022-08-27T23:52:15.343Z,2.28
2022-08-27T23:54:43.791Z,2.05
2022-08-27T23:57:11.789Z,1.80
2022-08-27T23:59:40.246Z,1.50
